Time;durP1;ratioP1;P1;durP2;ratioP2;P2;SDS_P1;SDS_P2;PMS_P1;PMS_P2;Temp;Humidity;BMP_temperature;BMP_pressure;BME280_temperature;BME280_humidity;BME280_pressure;Samples;Min_cycle;Max_cycle;Signal;HPM_P1;HPM_P2
2021/12/15 16:07:58;;;;;;;483.42;28.70;;;17.90;85.40;;;;;;7896113;28;20505;-55
2021/12/15 16:11:48;;;;;;;1379.18;97.00;;;17.80;87.30;;;;;;7896434;28;20715;-55
2021/12/15 16:15:38;;;;;;;654.47;40.60;;;17.60;87.60;;;;;;7896214;28;20457;-51
2021/12/15 16:19:36;;;;;;;254.60;17.30;;;17.70;88.00;;;;;;7895130;28;20238;-52
2021/12/15 16:23:28;;;;;;;213.63;13.75;;;17.70;87.40;;;;;;7896061;28;20188;-51
2021/12/15 16:27:14;;;;;;;173.80;13.73;;;17.80;87.20;;;;;;7895880;28;20303;-52
2021/12/15 16:31:03;;;;;;;187.55;12.23;;;17.90;87.20;;;;;;7894865;28;20189;-51
2021/12/15 16:34:49;;;;;;;137.30;11.32;;;17.90;88.10;;;;;;7895428;28;20680;-51
2021/12/15 16:38:45;;;;;;;140.80;11.32;;;18.00;87.20;;;;;;7894788;28;20184;-52
2021/12/15 16:42:58;;;;;;;160.77;10.95;;;18.10;87.20;;;;;;7895604;28;20188;-52
2021/12/15 16:47:03;;;;;;;149.02;11.65;;;18.10;87.20;;;;;;7895124;28;20204;-51
2021/12/15 16:50:52;;;;;;;114.32;9.80;;;18.20;87.10;;;;;;7894261;28;20226;-54
2021/12/15 16:54:49;;;;;;;108.82;9.20;;;18.20;87.00;;;;;;7894874;28;20264;-52
2021/12/15 16:58:35;;;;;;;107.80;10.32;;;18.20;86.90;;;;;;7881880;28;20701;-52
2021/12/15 17:02:25;;;;;;;70.82;10.60;;;18.20;86.50;;;;;;7863177;28;20173;-53
2021/12/15 17:06:11;;;;;;;65.75;12.30;;;18.20;85.90;;;;;;7862967;28;20217;-54
2021/12/15 17:09:58;;;;;;;72.15;11.52;;;18.20;85.60;;;;;;7862443;28;20188;-51
2021/12/15 17:13:43;;;;;;;70.32;10.80;;;18.30;85.40;;;;;;7862865;28;20216;-52
2021/12/15 17:17:46;;;;;;;54.25;9.30;;;18.30;85.50;;;;;;7851748;28;20194;-54
2021/12/15 17:21:31;;;;;;;40.08;7.30;;;18.40;85.70;;;;;;7842270;28;20176;-52
2021/12/15 17:25:25;;;;;;;42.22;8.98;;;18.40;85.80;;;;;;7842020;28;20214;-53
2021/12/15 17:29:13;;;;;;;50.85;8.65;;;18.50;86.00;;;;;;7841320;28;20173;-53
2021/12/15 17:32:59;;;;;;;36.15;7.70;;;18.70;86.20;;;;;;7842019;28;20651;-53
2021/12/15 17:36:53;;;;;;;32.05;7.22;;;18.80;86.10;;;;;;7841860;28;20202;-55
2021/12/15 17:40:38;;;;;;;52.33;7.20;;;18.90;86.20;;;;;;7841024;28;20240;-52
2021/12/15 17:44:29;;;;;;;37.72;6.10;;;19.00;86.40;;;;;;7841508;28;20199;-53
2021/12/15 17:48:25;;;;;;;92.20;11.55;;;19.10;86.50;;;;;;7839176;28;20193;-56
2021/12/15 17:52:24;;;;;;;97.75;12.38;;;19.20;87.00;;;;;;7839953;28;20231;-54
2021/12/15 17:56:10;;;;;;;121.57;13.65;;;19.00;89.60;;;;;;7840075;28;20201;-53
2021/12/15 17:59:56;;;;;;;79.07;10.95;;;18.80;90.00;;;;;;7838631;28;20281;-51
2021/12/15 18:03:45;;;;;;;46.20;9.05;;;18.70;90.60;;;;;;7840332;28;20184;-54
2021/12/15 18:07:30;;;;;;;10.15;3.90;;;18.40;90.00;;;;;;7841744;28;20666;-55
2021/12/15 18:11:18;;;;;;;7.00;4.28;;;18.10;80.20;;;;;;7855267;28;20186;-53
2021/12/15 18:15:05;;;;;;;7.88;4.18;;;16.80;81.50;;;;;;7839003;28;20190;-56
2021/12/15 18:18:54;;;;;;;4.40;3.60;;;15.70;83.00;;;;;;7856330;28;20625;-59
2021/12/15 18:22:40;;;;;;;17.23;4.78;;;14.60;85.80;;;;;;7870030;28;20169;-53
2021/12/15 18:26:28;;;;;;;13.57;4.60;;;13.70;90.00;;;;;;7856036;28;20232;-56
2021/12/15 18:30:19;;;;;;;9.38;4.70;;;13.10;91.10;;;;;;7837566;28;20635;-58
2021/12/15 18:34:07;;;;;;;10.27;4.90;;;12.80;91.50;;;;;;7839278;28;20743;-53
2021/12/15 18:37:53;;;;;;;6.82;4.65;;;12.20;92.60;;;;;;7837776;28;20290;-52
2021/12/15 18:41:40;;;;;;;10.45;5.15;;;12.10;93.20;;;;;;7837986;28;20178;-52
2021/12/15 18:45:26;;;;;;;11.40;4.53;;;11.90;93.30;;;;;;7837096;28;20332;-54
2021/12/15 18:49:15;;;;;;;24.75;5.28;;;12.40;95.20;;;;;;7837496;28;20181;-57
2021/12/15 18:53:02;;;;;;;19.38;5.28;;;13.30;95.20;;;;;;7838766;28;20225;-56
2021/12/15 18:56:52;;;;;;;21.42;5.50;;;14.10;94.60;;;;;;7838479;28;20554;-54
2021/12/15 19:00:42;;;;;;;10.65;4.82;;;14.60;94.30;;;;;;7837763;28;20200;-52
2021/12/15 19:04:32;;;;;;;19.42;5.78;;;15.00;93.80;;;;;;7837392;28;20760;-53
2021/12/15 19:08:44;;;;;;;13.50;4.20;;;15.20;92.30;;;;;;7893752;28;20495;-45
2021/12/15 19:12:30;;;;;;;15.73;3.53;;;16.60;93.50;;;;;;7872267;28;20197;-46
2021/12/15 19:16:16;;;;;;;21.75;4.38;;;18.00;91.20;;;;;;7863745;28;20239;-46
2021/12/15 19:20:08;;;;;;;19.92;4.30;;;19.10;90.00;;;;;;7864007;28;20213;-46
2021/12/15 19:23:54;;;;;;;20.45;4.93;;;20.00;86.00;;;;;;7866949;28;20193;-46
2021/12/15 19:27:40;;;;;;;19.45;4.60;;;20.60;84.00;;;;;;7880384;28;20306;-47
2021/12/15 19:31:29;;;;;;;20.25;4.10;;;21.10;82.40;;;;;;7867147;28;20186;-46
2021/12/15 19:35:15;;;;;;;13.50;3.22;;;21.40;81.20;;;;;;7863277;28;20296;-46
2021/12/15 19:39:03;;;;;;;14.40;3.40;;;21.70;80.50;;;;;;7862416;28;20174;-46
2021/12/15 19:42:50;;;;;;;17.48;3.22;;;22.00;79.80;;;;;;7869062;28;20176;-47
2021/12/15 19:46:36;;;;;;;24.33;4.57;;;22.30;79.90;;;;;;7893929;28;20212;-48
2021/12/15 19:50:22;;;;;;;12.13;2.75;;;22.50;79.40;;;;;;7893780;28;20165;-47
2021/12/15 19:54:08;;;;;;;12.20;2.88;;;22.80;79.10;;;;;;7895281;28;20264;-48
2021/12/15 19:57:53;;;;;;;15.45;2.83;;;23.00;78.80;;;;;;7894283;28;20208;-48
2021/12/15 20:01:42;;;;;;;17.92;3.00;;;23.20;78.40;;;;;;7893018;28;20204;-48
2021/12/15 20:05:31;;;;;;;17.80;3.38;;;23.40;78.20;;;;;;7873598;28;20208;-48
2021/12/15 20:09:22;;;;;;;12.43;3.25;;;23.50;78.20;;;;;;7888369;28;20314;-48
2021/12/15 20:13:08;;;;;;;21.13;3.40;;;23.60;78.20;;;;;;7864299;28;20583;-49
2021/12/15 20:16:58;;;;;;;14.95;2.22;;;23.60;78.30;;;;;;7859315;28;20210;-48
2021/12/15 20:20:45;;;;;;;13.45;2.90;;;23.70;78.40;;;;;;7841472;28;20681;-49
2021/12/15 20:24:35;;;;;;;11.90;2.60;;;23.70;78.40;;;;;;7841699;28;20178;-48
2021/12/15 20:28:21;;;;;;;12.23;2.60;;;23.60;79.20;;;;;;7840232;28;20209;-48
2021/12/15 20:32:11;;;;;;;9.73;2.28;;;23.60;80.20;;;;;;7841554;28;20209;-48
2021/12/15 20:35:57;;;;;;;12.27;2.20;;;23.60;80.80;;;;;;7841752;28;20225;-48
2021/12/15 20:39:43;;;;;;;8.88;2.38;;;23.60;81.10;;;;;;7840870;28;20185;-48
2021/12/15 20:43:29;;;;;;;7.25;2.30;;;23.50;81.40;;;;;;7841429;28;20186;-48
2021/12/15 20:47:15;;;;;;;13.88;3.10;;;23.50;81.70;;;;;;7841253;28;20268;-48
2021/12/15 20:51:07;;;;;;;10.40;2.50;;;23.40;82.80;;;;;;7840663;28;20209;-47
2021/12/15 20:54:53;;;;;;;8.32;2.22;;;23.40;82.30;;;;;;7841761;28;20194;-48
2021/12/15 20:58:39;;;;;;;14.25;2.60;;;23.40;82.50;;;;;;7840612;28;20186;-48
2021/12/15 21:02:24;;;;;;;14.38;2.47;;;23.30;82.30;;;;;;7841035;28;20174;-48
2021/12/15 21:06:31;;;;;;;9.48;2.33;;;23.30;82.40;;;;;;7840808;28;20618;-48
2021/12/15 21:10:20;;;;;;;14.05;2.33;;;23.20;82.50;;;;;;7839270;28;20244;-47
2021/12/15 21:14:10;;;;;;;11.23;2.35;;;23.10;82.40;;;;;;7840810;28;20177;-48
2021/12/15 21:17:56;;;;;;;14.50;2.53;;;23.10;82.30;;;;;;7839814;28;20692;-48
2021/12/15 21:21:43;;;;;;;15.07;2.60;;;23.10;82.40;;;;;;7840598;28;20186;-48
2021/12/15 21:25:32;;;;;;;12.52;2.60;;;23.00;82.20;;;;;;7840252;28;20209;-48
2021/12/15 21:29:23;;;;;;;13.05;2.45;;;23.00;83.10;;;;;;7838613;28;20202;-48
2021/12/15 21:33:09;;;;;;;11.88;2.75;;;22.90;82.00;;;;;;7840288;28;20573;-48
2021/12/15 21:36:54;;;;;;;10.98;1.85;;;22.90;82.00;;;;;;7840042;28;20205;-48
2021/12/15 21:40:42;;;;;;;9.02;2.75;;;22.80;81.90;;;;;;7839376;28;20549;-47
2021/12/15 21:44:28;;;;;;;9.95;2.30;;;22.80;81.90;;;;;;7840299;28;20221;-48
2021/12/15 21:48:14;;;;;;;9.82;2.47;;;22.70;81.90;;;;;;7839583;28;20201;-48
2021/12/15 21:52:00;;;;;;;6.53;2.05;;;22.60;81.80;;;;;;7840044;28;20248;-48
2021/12/15 21:55:46;;;;;;;9.85;2.38;;;22.60;81.80;;;;;;7839605;28;20205;-48
2021/12/15 21:59:33;;;;;;;7.65;1.98;;;22.50;81.80;;;;;;7838945;28;20177;-48
2021/12/15 22:03:21;;;;;;;5.05;1.83;;;22.50;81.80;;;;;;7840009;28;20201;-48
2021/12/15 22:07:07;;;;;;;11.38;2.20;;;22.40;81.70;;;;;;7838893;28;20397;-48
2021/12/15 22:10:53;;;;;;;6.60;2.13;;;22.40;81.70;;;;;;7838478;28;20170;-48
2021/12/15 22:14:38;;;;;;;4.95;1.70;;;22.40;81.70;;;;;;7838970;28;20566;-48
2021/12/15 22:18:28;;;;;;;4.72;1.95;;;22.30;81.70;;;;;;7838305;28;20621;-47
2021/12/15 22:22:14;;;;;;;6.97;2.03;;;22.20;81.70;;;;;;7838796;28;20268;-48
2021/12/15 22:26:00;;;;;;;5.85;1.70;;;22.20;81.70;;;;;;7838500;28;20220;-48
2021/12/15 22:29:47;;;;;;;6.20;2.00;;;22.10;81.70;;;;;;7838050;28;20748;-48
2021/12/15 22:33:35;;;;;;;2.33;1.73;;;22.10;81.70;;;;;;7838563;28;20190;-48
2021/12/15 22:37:22;;;;;;;7.38;1.80;;;22.00;81.60;;;;;;7838271;28;20190;-48
2021/12/15 22:41:12;;;;;;;4.53;1.75;;;22.00;81.70;;;;;;7837172;28;20186;-47
2021/12/15 22:44:58;;;;;;;5.25;1.98;;;21.90;81.50;;;;;;7838161;28;20649;-48
2021/12/15 22:48:44;;;;;;;3.30;1.75;;;21.90;81.60;;;;;;7837430;28;20202;-48
2021/12/15 22:52:29;;;;;;;2.70;1.63;;;21.80;81.70;;;;;;7838149;28;20192;-48
2021/12/15 22:56:15;;;;;;;4.55;1.70;;;21.80;81.70;;;;;;7837976;28;20256;-48
2021/12/15 23:00:03;;;;;;;5.72;1.50;;;21.70;81.60;;;;;;7837306;28;20197;-48
2021/12/15 23:03:55;;;;;;;13.40;1.90;;;21.70;81.50;;;;;;7838061;28;20256;-48
2021/12/15 23:07:40;;;;;;;5.38;1.52;;;21.70;81.50;;;;;;7836934;28;20213;-47
2021/12/15 23:11:29;;;;;;;8.65;1.67;;;21.70;81.40;;;;;;7837892;28;20176;-48
2021/12/15 23:15:21;;;;;;;4.47;1.50;;;21.70;81.40;;;;;;7837781;28;20280;-48
2021/12/15 23:19:07;;;;;;;4.43;1.70;;;21.60;81.20;;;;;;7837120;28;20173;-47
2021/12/15 23:22:53;;;;;;;3.65;1.75;;;21.60;81.20;;;;;;7837811;28;20585;-48
2021/12/15 23:26:38;;;;;;;5.47;1.73;;;21.60;81.30;;;;;;7837709;28;20214;-48
2021/12/15 23:30:24;;;;;;;3.75;1.70;;;21.50;81.20;;;;;;7837278;28;20178;-47
2021/12/15 23:34:10;;;;;;;6.35;1.80;;;21.50;81.20;;;;;;7838138;28;20186;-48
2021/12/15 23:42:38;;;;;;;2.53;1.40;;;21.40;81.20;;;;;;7837636;28;20186;-48
